createdAt,value
2023-04-27T00:01:50.694Z,999.00
2023-04-27T00:04:18.498Z,3428.00
2023-04-27T00:06:45.486Z,3432.40
2023-04-27T00:09:14.108Z,0.00
2023-04-27T00:11:41.425Z,3401.75
2023-04-27T00:14:08.277Z,3431.50
2023-04-27T00:16:35.825Z,3378.20
2023-04-27T00:19:03.019Z,0.00
2023-04-27T00:21:29.911Z,3402.80
2023-04-27T00:23:57.250Z,3425.20
2023-04-27T00:26:25.539Z,3446.60
2023-04-27T00:28:53.506Z,3501.20
2023-04-27T00:31:20.585Z,0.00
2023-04-27T00:33:49.821Z,3453.20
2023-04-27T00:36:16.792Z,3477.80
2023-04-27T00:38:43.829Z,0.00
2023-04-27T00:41:10.849Z,3381.20
2023-04-27T00:43:45.075Z,0.00
2023-04-27T00:46:14.035Z,0.00
2023-04-27T00:48:41.966Z,0.00
2023-04-27T00:51:10.106Z,0.00
2023-04-27T00:53:37.974Z,3465.20
2023-04-27T00:56:06.457Z,0.00
2023-04-27T00:58:33.453Z,0.00
2023-04-27T01:01:01.941Z,3423.80
2023-04-27T01:03:31.131Z,0.00
2023-04-27T01:05:58.658Z,0.00
2023-04-27T01:08:26.066Z,0.00
2023-04-27T01:10:53.126Z,0.00
2023-04-27T01:13:20.278Z,0.00
2023-04-27T01:15:47.170Z,3350.75
2023-04-27T01:18:15.630Z,3401.75
2023-04-27T01:20:42.788Z,0.00
2023-04-27T01:23:16.666Z,0.00
2023-04-27T01:25:44.668Z,0.00
2023-04-27T01:28:11.651Z,0.00
2023-04-27T01:30:38.621Z,3457.40
2023-04-27T01:33:05.612Z,0.00
2023-04-27T01:35:32.659Z,3411.20
2023-04-27T01:38:01.010Z,0.00
2023-04-27T01:40:29.555Z,0.00
2023-04-27T01:42:56.450Z,3361.60
2023-04-27T01:45:23.555Z,0.00
2023-04-27T01:47:51.546Z,0.00
2023-04-27T01:50:20.959Z,0.00
2023-04-27T01:52:47.987Z,3421.00
2023-04-27T01:55:14.964Z,3396.50
2023-04-27T01:57:44.671Z,0.00
2023-04-27T02:00:14.389Z,3393.00
2023-04-27T02:02:56.892Z,0.00
2023-04-27T02:05:27.101Z,0.00
2023-04-27T02:07:54.526Z,3492.50
2023-04-27T02:10:23.110Z,3483.60
2023-04-27T02:12:56.399Z,3476.60
2023-04-27T02:15:23.648Z,3430.80
2023-04-27T02:17:50.809Z,3437.80
2023-04-27T02:20:18.064Z,3446.20
2023-04-27T02:22:45.132Z,3513.80
2023-04-27T02:25:13.136Z,3527.80
2023-04-27T02:27:41.161Z,3497.60
2023-04-27T02:30:12.061Z,3450.40
2023-04-27T02:32:39.660Z,3513.00
2023-04-27T02:35:08.026Z,3463.40
2023-04-27T02:37:35.121Z,0.00
2023-04-27T02:40:02.678Z,0.00
2023-04-27T02:42:32.804Z,0.00
2023-04-27T02:45:00.126Z,0.00
2023-04-27T02:47:28.529Z,3400.00
2023-04-27T02:49:56.301Z,0.00
2023-04-27T02:52:23.365Z,0.00
2023-04-27T02:54:50.209Z,0.00
2023-04-27T02:57:17.241Z,0.00
2023-04-27T02:59:44.307Z,3494.20
2023-04-27T03:02:11.585Z,3442.00
2023-04-27T03:04:39.945Z,3409.80
2023-04-27T03:08:27.376Z,3445.20
2023-04-27T03:11:09.794Z,3498.80
2023-04-27T03:13:37.724Z,3545.40
2023-04-27T03:21:11.776Z,3475.00
2023-04-27T03:23:40.027Z,3515.60
2023-04-27T03:26:07.975Z,3538.40
2023-04-27T03:28:35.673Z,3505.40
2023-04-27T03:31:05.903Z,3542.80
2023-04-27T03:33:33.001Z,3521.40
2023-04-27T03:36:00.744Z,3559.40
2023-04-27T03:38:29.334Z,3553.00
2023-04-27T03:40:57.184Z,3497.00
2023-04-27T03:43:25.916Z,3557.20
2023-04-27T03:45:53.352Z,3601.25
2023-04-27T03:48:21.015Z,0.25
2023-04-27T03:50:48.342Z,0.00
2023-04-27T03:53:16.016Z,0.00
2023-04-27T03:55:45.757Z,0.00
2023-04-27T03:58:16.853Z,0.00
2023-04-27T04:01:07.134Z,0.00
2023-04-27T04:03:34.249Z,0.00
2023-04-27T04:06:01.341Z,0.00
2023-04-27T04:08:28.730Z,0.00
2023-04-27T04:10:57.836Z,0.00
2023-04-27T04:13:24.668Z,0.00
2023-04-27T04:16:03.033Z,0.00
2023-04-27T04:18:30.449Z,0.00
2023-04-27T04:20:57.582Z,0.00
2023-04-27T04:23:24.906Z,0.00
2023-04-27T04:25:52.936Z,0.00
2023-04-27T04:28:21.954Z,0.00
2023-04-27T04:30:49.977Z,0.00
2023-04-27T04:33:18.207Z,0.00
2023-04-27T04:35:45.473Z,0.00
2023-04-27T04:38:12.947Z,0.00
2023-04-27T04:40:44.548Z,0.00
2023-04-27T04:43:12.976Z,0.00
2023-04-27T04:45:41.573Z,9.00
2023-04-27T04:48:08.541Z,0.00
2023-04-27T04:50:35.700Z,0.00
2023-04-27T04:53:03.755Z,0.00
2023-04-27T04:58:12.583Z,0.00
2023-04-27T05:00:40.909Z,0.00
2023-04-27T05:03:08.583Z,0.00
2023-04-27T05:05:35.578Z,0.00
2023-04-27T05:08:02.781Z,0.00
2023-04-27T05:10:29.652Z,0.00
2023-04-27T05:12:56.645Z,0.00
2023-04-27T05:15:23.792Z,0.00
2023-04-27T05:17:52.192Z,0.00
2023-04-27T05:20:19.338Z,0.00
2023-04-27T05:22:46.180Z,0.00
2023-04-27T05:25:13.362Z,0.00
2023-04-27T05:27:40.233Z,0.00
2023-04-27T05:30:09.101Z,0.00
2023-04-27T05:32:36.482Z,0.00
2023-04-27T05:35:05.499Z,0.00
2023-04-27T05:37:32.780Z,0.00
2023-04-27T05:40:00.344Z,0.00
2023-04-27T05:42:27.367Z,0.00
2023-04-27T05:44:55.248Z,0.00
2023-04-27T05:47:22.636Z,0.00
2023-04-27T05:49:51.035Z,0.00
2023-04-27T05:52:20.190Z,0.00
2023-04-27T05:54:47.562Z,0.00
2023-04-27T05:57:15.548Z,0.00
2023-04-27T05:59:42.670Z,0.00
2023-04-27T06:02:09.707Z,0.00
2023-04-27T06:04:36.730Z,0.00
2023-04-27T06:07:08.311Z,0.00
2023-04-27T06:09:37.196Z,0.00
2023-04-27T06:12:04.442Z,0.00
2023-04-27T06:14:32.405Z,0.00
2023-04-27T06:16:59.356Z,0.00
2023-04-27T06:19:26.220Z,0.00
2023-04-27T06:21:54.504Z,0.00
2023-04-27T06:24:22.077Z,0.00
2023-04-27T06:26:50.536Z,0.00
2023-04-27T06:29:17.566Z,13.50
2023-04-27T06:31:44.552Z,0.50
2023-04-27T06:34:11.435Z,0.00
2023-04-27T06:36:38.351Z,0.00
2023-04-27T06:39:05.170Z,0.00
2023-04-27T06:41:32.641Z,0.00
2023-04-27T06:44:00.859Z,0.00
2023-04-27T06:46:27.737Z,0.00
2023-04-27T06:48:54.821Z,0.00
2023-04-27T06:51:22.664Z,0.00
2023-04-27T06:53:50.083Z,0.00
2023-04-27T06:56:17.148Z,0.00
2023-04-27T06:58:44.178Z,0.00
2023-04-27T07:01:12.692Z,0.00
2023-04-27T07:03:39.883Z,0.00
2023-04-27T07:06:07.219Z,0.00
2023-04-27T07:08:34.279Z,0.00
2023-04-27T07:11:01.459Z,0.00
2023-04-27T07:13:29.512Z,0.00
2023-04-27T07:15:58.527Z,0.00
2023-04-27T07:18:27.307Z,0.00
2023-04-27T07:20:54.606Z,0.00
2023-04-27T07:23:21.681Z,0.00
2023-04-27T07:25:48.960Z,21.50
2023-04-27T07:28:16.154Z,194.20
2023-04-27T07:30:43.343Z,8.50
2023-04-27T07:33:10.442Z,0.00
2023-04-27T07:35:39.281Z,0.00
2023-04-27T07:38:06.856Z,0.00
2023-04-27T07:40:34.998Z,0.00
2023-04-27T07:43:02.082Z,0.00
2023-04-27T07:45:29.009Z,0.00
2023-04-27T07:47:57.641Z,0.00
2023-04-27T07:50:27.881Z,0.00
2023-04-27T07:52:56.760Z,14.75
2023-04-27T07:55:24.992Z,30.50
2023-04-27T07:57:52.887Z,27.50
2023-04-27T08:00:20.387Z,40.40
2023-04-27T08:02:47.649Z,1547.80
2023-04-27T08:05:15.299Z,904.60
2023-04-27T08:07:44.781Z,47.50
2023-04-27T08:10:15.342Z,696.25
2023-04-27T08:12:42.603Z,1280.00
2023-04-27T08:15:11.927Z,2760.20
2023-04-27T08:17:38.997Z,3521.80
2023-04-27T08:20:08.930Z,3363.00
2023-04-27T08:22:35.780Z,3572.00
2023-04-27T08:25:04.390Z,3727.60
2023-04-27T08:27:32.776Z,2817.00
2023-04-27T08:29:59.774Z,2821.40
2023-04-27T08:32:26.700Z,2149.25
2023-04-27T08:36:27.288Z,37.50
2023-04-27T08:38:54.963Z,37.60
2023-04-27T08:41:23.104Z,37.00
2023-04-27T08:43:52.027Z,0.00
2023-04-27T08:46:19.462Z,0.00
2023-04-27T08:48:46.988Z,3411.40
2023-04-27T08:51:15.997Z,0.00
2023-04-27T08:53:49.341Z,5.00
2023-04-27T08:56:16.886Z,0.00
2023-04-27T08:58:44.369Z,4.75
2023-04-27T09:01:12.661Z,0.00
2023-04-27T09:03:39.858Z,41.00
2023-04-27T09:06:08.004Z,2.67
2023-04-27T09:08:49.244Z,1.33
2023-04-27T09:11:28.418Z,0.00
2023-04-27T09:13:55.702Z,0.00
2023-04-27T09:16:27.618Z,2.50
2023-04-27T09:18:56.561Z,0.00
2023-04-27T09:21:24.376Z,0.00
2023-04-27T09:23:52.604Z,68.00
2023-04-27T09:26:21.482Z,427.50
2023-04-27T09:28:51.128Z,1.25
2023-04-27T09:31:18.968Z,3963.00
2023-04-27T09:33:55.316Z,14.80
2023-04-27T09:36:24.005Z,25.50
2023-04-27T09:38:52.702Z,287.80
2023-04-27T09:41:20.201Z,119.00
2023-04-27T09:43:47.489Z,361.60
2023-04-27T09:46:15.109Z,4075.00
2023-04-27T09:48:42.472Z,34.67
2023-04-27T09:51:10.961Z,25.67
2023-04-27T09:53:46.671Z,4022.60
2023-04-27T09:56:33.938Z,3990.25
2023-04-27T09:59:46.622Z,14.40
2023-04-27T10:02:25.446Z,473.00
2023-04-27T10:05:30.131Z,3.20
2023-04-27T10:07:58.816Z,4.60
2023-04-27T10:10:26.525Z,2.60
2023-04-27T10:12:59.088Z,3.40
2023-04-27T10:15:28.135Z,3.00
2023-04-27T10:17:56.008Z,5.40
2023-04-27T10:20:30.801Z,3.80
2023-04-27T10:23:00.187Z,2.80
2023-04-27T10:25:29.110Z,1.80
2023-04-27T10:27:59.349Z,31.00
2023-04-27T10:30:32.305Z,0.00
2023-04-27T10:33:05.972Z,4.00
2023-04-27T10:35:34.882Z,4.20
2023-04-27T10:38:15.131Z,4.80
2023-04-27T10:40:45.110Z,4.20
2023-04-27T10:43:14.560Z,2.00
2023-04-27T10:45:43.597Z,4.00
2023-04-27T10:48:13.575Z,9.60
2023-04-27T10:50:41.509Z,3.60
2023-04-27T10:53:10.080Z,3.00
2023-04-27T10:55:37.562Z,7.00
2023-04-27T10:58:04.687Z,5.40
2023-04-27T11:00:36.256Z,4.20
2023-04-27T11:03:16.348Z,4.20
2023-04-27T11:05:45.277Z,4.20
2023-04-27T11:08:15.853Z,3.60
2023-04-27T11:10:46.344Z,2.20
2023-04-27T11:13:16.361Z,3.00
2023-04-27T11:15:48.957Z,4.00
2023-04-27T11:18:19.035Z,2.00
2023-04-27T11:20:50.707Z,3.00
2023-04-27T11:23:27.281Z,3.00
2023-04-27T11:25:54.890Z,3.00
2023-04-27T11:28:22.563Z,2.00
2023-04-27T11:30:56.766Z,5.00
2023-04-27T11:33:24.377Z,4.00
2023-04-27T11:35:51.399Z,4.40
2023-04-27T11:38:20.416Z,3.60
2023-04-27T11:41:00.387Z,4.80
2023-04-27T11:43:28.038Z,4.00
2023-04-27T11:45:56.380Z,6.00
2023-04-27T11:48:24.209Z,4.60
2023-04-27T11:50:51.796Z,4.80
2023-04-27T11:53:30.070Z,6.00
2023-04-27T11:56:02.238Z,5.00
2023-04-27T11:58:29.378Z,4.50
2023-04-27T12:00:58.232Z,5.00
2023-04-27T12:03:25.344Z,5.25
2023-04-27T12:05:54.939Z,4.75
2023-04-27T12:08:21.881Z,5.50
2023-04-27T12:10:49.156Z,5.00
2023-04-27T12:13:17.528Z,3.40
2023-04-27T12:15:44.583Z,7.00
2023-04-27T12:18:13.906Z,6.00
2023-04-27T12:20:41.001Z,6.00
2023-04-27T12:23:08.206Z,4.75
2023-04-27T12:25:35.186Z,4.40
2023-04-27T12:28:04.753Z,5.20
2023-04-27T12:30:33.166Z,6.00
2023-04-27T12:33:00.121Z,4.25
2023-04-27T12:35:27.109Z,3.80
2023-04-27T12:37:55.672Z,4.00
2023-04-27T12:40:22.690Z,5.20
2023-04-27T12:42:49.878Z,5.20
2023-04-27T12:45:17.208Z,2.40
2023-04-27T12:48:01.210Z,4.00
2023-04-27T12:50:30.859Z,4.00
2023-04-27T12:52:58.910Z,5.20
2023-04-27T12:57:58.474Z,4.00
2023-04-27T13:00:26.404Z,3.00
2023-04-27T13:02:55.318Z,4.00
2023-04-27T13:05:22.744Z,6.00
2023-04-27T13:07:49.669Z,3.20
2023-04-27T13:10:17.011Z,3.80
2023-04-27T13:12:44.548Z,4.40
2023-04-27T13:15:11.794Z,5.00
2023-04-27T13:17:38.792Z,3.60
2023-04-27T13:20:09.297Z,3.40
2023-04-27T13:22:36.329Z,2.80
2023-04-27T13:25:03.632Z,5.00
2023-04-27T13:27:30.637Z,5.00
2023-04-27T13:29:57.604Z,6.00
2023-04-27T13:32:24.587Z,3.00
2023-04-27T13:34:51.514Z,3.00
2023-04-27T13:37:19.784Z,6.50
2023-04-27T13:39:47.454Z,3.80
2023-04-27T13:42:14.788Z,6.25
2023-04-27T13:44:41.693Z,3.00
2023-04-27T13:47:09.468Z,4.25
2023-04-27T13:49:36.939Z,4.00
2023-04-27T13:52:05.227Z,5.00
2023-04-27T13:54:33.476Z,2.25
2023-04-27T13:57:00.334Z,3.25
2023-04-27T13:59:31.169Z,3.00
2023-04-27T14:01:58.132Z,4.50
2023-04-27T14:04:25.452Z,12.00
2023-04-27T14:06:52.447Z,5.50
2023-04-27T14:09:19.410Z,7.00
2023-04-27T14:11:56.526Z,11.25
2023-04-27T14:14:26.847Z,5.00
2023-04-27T14:16:54.116Z,5.75
2023-04-27T14:19:21.390Z,5.25
2023-04-27T14:21:50.192Z,6.25
2023-04-27T14:24:17.488Z,5.50
2023-04-27T14:26:44.792Z,6.50
2023-04-27T14:29:13.481Z,4.50
2023-04-27T14:31:41.093Z,3.25
2023-04-27T14:34:08.612Z,8.50
2023-04-27T14:36:36.528Z,28.00
2023-04-27T14:39:04.516Z,6.00
2023-04-27T14:41:31.636Z,3.00
2023-04-27T14:43:58.663Z,7.00
2023-04-27T14:46:26.938Z,4.25
2023-04-27T14:48:54.406Z,5.50
2023-04-27T14:51:22.210Z,4.75
2023-04-27T14:53:50.156Z,3.25
2023-04-27T14:56:20.613Z,5.00
2023-04-27T14:58:48.333Z,3.00
2023-04-27T15:01:15.372Z,3.25
2023-04-27T15:03:43.913Z,2.00
2023-04-27T15:06:11.983Z,4.00
2023-04-27T15:08:39.010Z,1.20
2023-04-27T15:11:07.174Z,2.80
2023-04-27T15:13:34.357Z,3.80
2023-04-27T15:16:01.358Z,3.40
2023-04-27T15:18:28.370Z,3.00
2023-04-27T15:20:58.390Z,3.00
2023-04-27T15:23:30.653Z,2.60
2023-04-27T15:25:58.341Z,3.40
2023-04-27T15:28:26.406Z,2.40
2023-04-27T15:30:53.388Z,3.00
2023-04-27T15:33:20.335Z,3.00
2023-04-27T15:35:47.510Z,3.00
2023-04-27T15:38:16.822Z,2.00
2023-04-27T15:40:44.012Z,2.00
2023-04-27T15:43:11.223Z,2.60
2023-04-27T15:45:38.620Z,2.00
2023-04-27T15:48:07.281Z,3.00
2023-04-27T15:50:34.090Z,2.20
2023-04-27T15:53:01.931Z,3.00
2023-04-27T15:55:30.342Z,8.25
2023-04-27T15:57:57.326Z,2.60
2023-04-27T16:00:24.352Z,3.00
2023-04-27T16:02:51.350Z,3.00
2023-04-27T16:05:20.137Z,28.75
2023-04-27T16:07:47.202Z,3.00
2023-04-27T16:10:15.657Z,2.40
2023-04-27T16:12:44.165Z,2.20
2023-04-27T16:15:11.929Z,2.00
2023-04-27T16:17:39.385Z,2.80
2023-04-27T16:20:08.449Z,3.00
2023-04-27T16:22:37.656Z,2.25
2023-04-27T16:25:06.128Z,2.40
2023-04-27T16:27:34.161Z,2.00
2023-04-27T16:30:02.667Z,2.00
2023-04-27T16:32:29.701Z,2.00
2023-04-27T16:34:56.776Z,1.25
2023-04-27T16:37:24.246Z,3.75
2023-04-27T16:39:51.273Z,2.00
2023-04-27T16:42:18.428Z,1.75
2023-04-27T16:44:45.786Z,1.00
2023-04-27T16:47:14.325Z,3.00
2023-04-27T16:49:42.086Z,0.00
2023-04-27T16:52:09.110Z,1.75
2023-04-27T16:54:36.042Z,2.25
2023-04-27T16:57:03.376Z,2.00
2023-04-27T16:59:30.755Z,3.00
2023-04-27T17:02:01.715Z,2.00
2023-04-27T17:04:37.704Z,2.00
2023-04-27T17:07:04.628Z,4.50
2023-04-27T17:09:31.578Z,2.50
2023-04-27T17:11:59.360Z,2.25
2023-04-27T17:14:26.224Z,22.00
2023-04-27T17:16:53.092Z,5.00
2023-04-27T17:19:20.160Z,6.00
2023-04-27T17:21:48.621Z,3.00
2023-04-27T17:24:15.486Z,2.00
2023-04-27T17:26:42.344Z,2.00
2023-04-27T17:29:09.640Z,2.00
2023-04-27T17:31:36.687Z,2.00
2023-04-27T17:34:03.650Z,2.25
2023-04-27T17:36:30.792Z,2.00
2023-04-27T17:38:59.293Z,2.00
2023-04-27T17:41:26.588Z,2.00
2023-04-27T17:43:53.660Z,1.25
2023-04-27T17:46:20.677Z,2.00
2023-04-27T17:48:47.649Z,2.00
2023-04-27T17:51:14.544Z,3.00
2023-04-27T17:53:41.481Z,3.00
2023-04-27T17:56:09.815Z,1.25
2023-04-27T17:58:36.764Z,2.00
2023-04-27T18:01:03.679Z,2.00
2023-04-27T18:03:31.468Z,2.00
2023-04-27T18:05:58.470Z,2.25
2023-04-27T18:08:25.918Z,2.00
2023-04-27T18:10:52.922Z,2.00
2023-04-27T18:13:21.342Z,2.00
2023-04-27T18:15:48.139Z,2.00
2023-04-27T18:18:15.540Z,2.00
2023-04-27T18:20:42.505Z,3.00
2023-04-27T18:23:10.040Z,3.00
2023-04-27T18:25:36.957Z,2.00
2023-04-27T18:28:05.886Z,2.00
2023-04-27T18:30:34.434Z,2.00
2023-04-27T18:33:01.431Z,3.00
2023-04-27T18:35:28.644Z,4.50
2023-04-27T18:37:56.118Z,1.50
2023-04-27T18:40:23.925Z,3.50
2023-04-27T18:42:50.889Z,2.50
2023-04-27T18:45:17.999Z,4.25
2023-04-27T18:47:46.343Z,3.75
2023-04-27T18:50:13.418Z,3.25
2023-04-27T18:52:41.613Z,2.00
2023-04-27T18:55:09.936Z,3.75
2023-04-27T18:57:37.304Z,2.00
2023-04-27T19:00:05.973Z,5.75
2023-04-27T19:02:33.201Z,3.75
2023-04-27T19:07:34.630Z,3.50
2023-04-27T19:10:01.630Z,4.00
2023-04-27T19:12:28.872Z,4.00
2023-04-27T19:14:55.851Z,4.00
2023-04-27T19:17:31.356Z,6.00
2023-04-27T19:19:58.536Z,2.00
2023-04-27T19:22:27.040Z,5.00
2023-04-27T19:24:54.059Z,6.00
2023-04-27T19:27:21.613Z,8.00
2023-04-27T19:29:52.345Z,4.00
2023-04-27T19:32:19.924Z,6.00
2023-04-27T19:34:47.148Z,4.00
2023-04-27T19:37:14.659Z,5.00
2023-04-27T19:39:43.097Z,4.75
2023-04-27T19:42:10.285Z,4.25
2023-04-27T19:44:37.280Z,4.75
2023-04-27T19:47:04.650Z,7.50
2023-04-27T19:49:32.055Z,5.00
2023-04-27T19:51:59.474Z,4.25
2023-04-27T19:54:26.828Z,5.00
2023-04-27T19:56:56.047Z,5.00
2023-04-27T19:59:23.024Z,5.00
2023-04-27T20:01:50.160Z,2.00
2023-04-27T20:04:17.382Z,5.00
2023-04-27T20:06:44.902Z,5.00
2023-04-27T20:09:12.286Z,5.75
2023-04-27T20:11:40.696Z,8.33
2023-04-27T20:14:08.941Z,7.00
2023-04-27T20:16:35.938Z,8.00
2023-04-27T20:19:02.918Z,7.50
2023-04-27T20:21:30.215Z,4.25
2023-04-27T20:23:58.456Z,7.00
2023-04-27T20:26:25.546Z,4.25
2023-04-27T20:28:52.724Z,5.25
2023-04-27T20:31:21.365Z,5.50
2023-04-27T20:33:48.272Z,6.25
2023-04-27T20:36:17.729Z,7.00
2023-04-27T20:38:46.196Z,4.00
2023-04-27T20:41:13.248Z,6.75
2023-04-27T20:43:40.715Z,4.75
2023-04-27T20:46:08.044Z,5.50
2023-04-27T20:48:36.403Z,5.00
2023-04-27T20:51:03.834Z,7.00
2023-04-27T20:53:30.980Z,5.00
2023-04-27T20:55:58.056Z,6.75
2023-04-27T20:58:25.364Z,7.00
2023-04-27T21:00:52.411Z,4.00
2023-04-27T21:03:19.641Z,7.50
2023-04-27T21:05:48.138Z,5.00
2023-04-27T21:08:15.838Z,8.00
2023-04-27T21:10:42.944Z,5.50
2023-04-27T21:13:10.013Z,8.50
2023-04-27T21:15:37.923Z,6.75
2023-04-27T21:18:06.420Z,7.75
2023-04-27T21:20:34.909Z,6.00
2023-04-27T21:23:03.245Z,8.00
2023-04-27T21:25:30.328Z,8.00
2023-04-27T21:27:57.488Z,8.67
2023-04-27T21:30:24.613Z,11.00
2023-04-27T21:32:51.565Z,10.00
2023-04-27T21:35:18.732Z,10.00
2023-04-27T21:37:45.797Z,10.67
2023-04-27T21:40:14.224Z,7.00
2023-04-27T21:42:41.201Z,10.00
2023-04-27T21:45:09.918Z,11.25
2023-04-27T21:47:36.981Z,2.67
2023-04-27T21:50:05.654Z,8.00
2023-04-27T21:52:32.916Z,12.00
2023-04-27T21:54:59.967Z,11.33
2023-04-27T21:57:28.470Z,8.00
2023-04-27T21:59:55.547Z,8.00
2023-04-27T22:02:23.126Z,10.67
2023-04-27T22:04:50.641Z,7.00
2023-04-27T22:07:17.957Z,8.50
2023-04-27T22:09:45.483Z,7.00
2023-04-27T22:12:12.367Z,10.00
2023-04-27T22:14:40.773Z,4.25
2023-04-27T22:17:07.590Z,8.00
2023-04-27T22:19:34.552Z,8.00
2023-04-27T22:22:01.413Z,7.00
2023-04-27T22:24:28.362Z,8.25
2023-04-27T22:26:55.403Z,7.00
2023-04-27T22:29:22.311Z,7.67
2023-04-27T22:31:51.264Z,7.67
2023-04-27T22:34:18.375Z,8.00
2023-04-27T22:36:45.503Z,7.00
2023-04-27T22:39:12.682Z,10.00
2023-04-27T22:41:39.618Z,7.25
2023-04-27T22:44:06.658Z,9.50
2023-04-27T22:46:33.672Z,6.33
2023-04-27T22:49:02.434Z,8.00
2023-04-27T22:51:29.384Z,7.00
2023-04-27T22:53:56.203Z,9.75
2023-04-27T22:56:23.611Z,9.25
2023-04-27T22:58:50.542Z,9.00
2023-04-27T23:01:18.022Z,8.00
2023-04-27T23:03:52.691Z,7.00
2023-04-27T23:06:21.273Z,10.00
2023-04-27T23:08:51.077Z,9.00
2023-04-27T23:11:18.316Z,9.25
2023-04-27T23:13:47.784Z,8.25
2023-04-27T23:16:16.410Z,9.00
2023-04-27T23:18:43.280Z,6.50
2023-04-27T23:21:10.104Z,7.00
2023-04-27T23:23:38.820Z,6.25
2023-04-27T23:26:12.536Z,6.25
2023-04-27T23:28:39.641Z,6.00
2023-04-27T23:31:06.999Z,5.50
2023-04-27T23:33:34.303Z,7.75
2023-04-27T23:36:01.469Z,8.50
2023-04-27T23:38:28.809Z,6.00
2023-04-27T23:40:57.077Z,6.00
2023-04-27T23:43:24.040Z,0.00
2023-04-27T23:45:52.415Z,7.00
2023-04-27T23:48:19.835Z,6.00
2023-04-27T23:50:46.819Z,8.50
2023-04-27T23:53:14.056Z,6.00
2023-04-27T23:55:40.899Z,4.00
2023-04-27T23:58:09.136Z,6.00
